createdAt,value
2022-12-18T00:00:00.391Z,74510.91
2022-12-18T00:00:35.252Z,74506.91
2022-12-18T00:01:16.245Z,74504.91
2022-12-18T00:01:49.487Z,74510.91
2022-12-18T00:02:24.369Z,74506.91
2022-12-18T00:02:57.215Z,74510.91
2022-12-18T00:03:29.663Z,74506.91
2022-12-18T00:04:06.658Z,74510.91
2022-12-18T00:04:39.021Z,74508.91
2022-12-18T00:05:11.237Z,74510.91
2022-12-18T00:05:54.969Z,74510.91
2022-12-18T00:06:28.652Z,74502.94
2022-12-18T00:07:00.896Z,74514.91
2022-12-18T00:07:35.739Z,74508.91
2022-12-18T00:08:09.315Z,74506.91
2022-12-18T00:08:41.916Z,74506.91
2022-12-18T00:09:16.897Z,74504.91
2022-12-18T00:09:49.120Z,74508.91
2022-12-18T00:10:23.964Z,74510.91
2022-12-18T00:10:59.557Z,74508.91
2022-12-18T00:11:33.227Z,74510.91
2022-12-18T00:12:47.988Z,74510.91
2022-12-18T00:13:20.206Z,74514.91
2022-12-18T00:13:57.020Z,74510.91
2022-12-18T00:14:29.255Z,74514.91
2022-12-18T00:15:01.467Z,74518.91
2022-12-18T00:15:38.228Z,74510.91
2022-12-18T00:16:14.179Z,74514.91
2022-12-18T00:16:47.392Z,74518.91
2022-12-18T00:17:22.412Z,74514.91
2022-12-18T00:17:54.626Z,74514.91
2022-12-18T00:18:26.832Z,74514.91
2022-12-18T00:19:01.679Z,74514.91
2022-12-18T00:19:33.893Z,74522.91
2022-12-18T00:20:10.095Z,74524.88
2022-12-18T00:20:42.296Z,74524.88
2022-12-18T00:21:17.367Z,74518.91
2022-12-18T00:21:52.167Z,74518.91
2022-12-18T00:22:24.653Z,74522.91
2022-12-18T00:22:56.926Z,74520.91
2022-12-18T00:23:31.809Z,74518.91
2022-12-18T00:24:04.432Z,74526.88
2022-12-18T00:24:39.268Z,74526.88
2022-12-18T00:25:11.470Z,74530.88
2022-12-18T00:25:43.671Z,74522.91
2022-12-18T00:26:17.761Z,74532.88
2022-12-18T00:26:52.572Z,74522.91
2022-12-18T00:27:25.020Z,74522.91
2022-12-18T00:27:57.250Z,74526.88
2022-12-18T00:28:29.514Z,74526.88
2022-12-18T00:29:06.518Z,74532.88
2022-12-18T00:29:38.783Z,74534.88
2022-12-18T00:30:14.185Z,74530.88
2022-12-18T00:30:52.436Z,74530.88
2022-12-18T00:31:26.092Z,74534.88
2022-12-18T00:31:59.239Z,74526.88
2022-12-18T00:32:34.265Z,74528.88
2022-12-18T00:33:08.061Z,74524.88
2022-12-18T00:33:40.756Z,74530.88
2022-12-18T00:34:18.129Z,74524.88
2022-12-18T00:34:50.372Z,74526.88
2022-12-18T00:35:22.927Z,74522.91
2022-12-18T00:35:57.736Z,74526.88
2022-12-18T00:36:34.363Z,74526.88
2022-12-18T00:37:06.643Z,74526.88
2022-12-18T00:37:41.449Z,74526.88
2022-12-18T00:38:14.401Z,74526.88
2022-12-18T00:38:47.428Z,74526.88
2022-12-18T00:39:22.241Z,74530.88
2022-12-18T00:39:54.459Z,74526.88
2022-12-18T00:40:26.719Z,74526.88
2022-12-18T00:40:59.748Z,74524.88
2022-12-18T00:41:46.994Z,74528.88
2022-12-18T00:42:34.251Z,74530.88
2022-12-18T00:43:11.908Z,74526.88
2022-12-18T00:43:44.140Z,74526.88
2022-12-18T00:44:18.200Z,74526.88
2022-12-18T00:44:53.590Z,74524.88
2022-12-18T00:45:26.542Z,74530.88
2022-12-18T00:45:58.905Z,74530.88
2022-12-18T00:46:32.059Z,74526.88
2022-12-18T00:47:06.944Z,74538.88
2022-12-18T00:47:39.368Z,74530.88
2022-12-18T00:48:11.581Z,74530.88
2022-12-18T00:48:44.152Z,74530.88
2022-12-18T00:49:21.821Z,74534.88
2022-12-18T00:49:54.032Z,74542.88
2022-12-18T00:50:27.059Z,74530.88
2022-12-18T00:51:02.064Z,74542.88
2022-12-18T00:51:36.897Z,74536.88
2022-12-18T00:52:09.133Z,74532.88
2022-12-18T00:52:43.998Z,74534.88
2022-12-18T00:53:16.226Z,74532.88
2022-12-18T00:53:48.578Z,74526.88
2022-12-18T00:54:23.396Z,74534.88
2022-12-18T00:54:55.917Z,74534.88
2022-12-18T00:55:28.264Z,74538.88
2022-12-18T00:56:00.481Z,74538.88
2022-12-18T00:56:35.361Z,74534.88
2022-12-18T00:57:07.665Z,74538.88
2022-12-18T00:57:39.949Z,74534.88
2022-12-18T00:58:16.267Z,74532.88
2022-12-18T00:58:48.609Z,74540.88
2022-12-18T00:59:21.033Z,74546.84
2022-12-18T00:59:53.320Z,74538.88
2022-12-18T01:00:28.147Z,74534.88
2022-12-18T01:01:00.646Z,74542.88
2022-12-18T01:01:33.908Z,74546.84
2022-12-18T01:02:09.008Z,74542.88
2022-12-18T01:02:43.833Z,74546.84
2022-12-18T01:03:16.301Z,74538.88
2022-12-18T01:03:49.978Z,74546.84
2022-12-18T01:04:24.812Z,74540.88
2022-12-18T01:04:57.032Z,74542.88
2022-12-18T01:05:29.455Z,74546.84
2022-12-18T01:06:09.793Z,74554.84
2022-12-18T01:06:44.930Z,74554.84
2022-12-18T01:07:17.194Z,74550.84
2022-12-18T01:07:52.294Z,74552.84
2022-12-18T01:08:25.721Z,74550.84
2022-12-18T01:08:58.436Z,74552.84
2022-12-18T01:09:33.278Z,74550.84
2022-12-18T01:10:06.839Z,74546.84
2022-12-18T01:10:42.205Z,74550.84
2022-12-18T01:11:16.394Z,74550.84
2022-12-18T01:11:51.217Z,74550.84
2022-12-18T01:12:23.491Z,74550.84
2022-12-18T01:12:56.995Z,74546.84
2022-12-18T01:13:29.232Z,74544.84
2022-12-18T01:14:04.076Z,74542.88
2022-12-18T01:14:36.322Z,74550.84
2022-12-18T01:15:10.272Z,74550.84
2022-12-18T01:15:52.093Z,74546.84
2022-12-18T01:16:24.375Z,74550.84
2022-12-18T01:16:59.256Z,74548.84
2022-12-18T01:17:31.508Z,74556.84
2022-12-18T01:18:03.771Z,74548.84
2022-12-18T01:18:38.592Z,74546.84
2022-12-18T01:19:13.910Z,74552.84
2022-12-18T01:19:46.143Z,74554.84
2022-12-18T01:20:18.477Z,74554.84
2022-12-18T01:20:51.484Z,74558.84
2022-12-18T01:21:27.252Z,74560.84
2022-12-18T01:22:02.080Z,74562.84
2022-12-18T01:22:34.348Z,74558.84
2022-12-18T01:23:06.639Z,74554.84
2022-12-18T01:23:42.680Z,74556.84
2022-12-18T01:24:17.755Z,74556.84
2022-12-18T01:24:49.967Z,74554.84
2022-12-18T01:25:24.803Z,74552.84
2022-12-18T01:25:57.007Z,74558.84
2022-12-18T01:26:30.688Z,74558.84
2022-12-18T01:27:05.600Z,74560.84
2022-12-18T01:27:37.837Z,74564.84
2022-12-18T01:28:10.068Z,74566.81
2022-12-18T01:28:45.882Z,74570.81
2022-12-18T01:29:18.168Z,74564.84
2022-12-18T01:29:51.010Z,74558.84
2022-12-18T01:30:28.006Z,74566.81
2022-12-18T01:31:11.570Z,74562.84
2022-12-18T01:31:43.931Z,74564.84
2022-12-18T01:32:18.894Z,74570.81
2022-12-18T01:32:51.293Z,74562.84
2022-12-18T01:33:23.492Z,74568.81
2022-12-18T01:33:59.223Z,74564.84
2022-12-18T01:34:31.464Z,74570.81
2022-12-18T01:35:04.317Z,74570.81
2022-12-18T01:35:44.437Z,74568.81
2022-12-18T01:36:18.541Z,74574.81
2022-12-18T01:36:53.176Z,74574.81
2022-12-18T01:37:30.837Z,74574.81
2022-12-18T01:38:03.068Z,74570.81
2022-12-18T01:38:35.369Z,74574.81
2022-12-18T01:39:13.575Z,74566.81
2022-12-18T01:39:47.640Z,74574.81
2022-12-18T01:40:19.876Z,74568.81
2022-12-18T01:41:01.019Z,74564.84
2022-12-18T01:41:49.401Z,74558.84
2022-12-18T01:42:22.393Z,74564.84
2022-12-18T01:42:57.446Z,74562.84
2022-12-18T01:43:49.136Z,74562.84
2022-12-18T01:44:52.687Z,74562.84
2022-12-18T01:45:30.069Z,74562.84
2022-12-18T01:46:02.374Z,74568.81
2022-12-18T01:46:36.515Z,74574.81
2022-12-18T01:47:19.371Z,74562.84
2022-12-18T01:47:55.850Z,74562.84
2022-12-18T01:48:28.080Z,74558.84
2022-12-18T01:49:01.866Z,74562.84
2022-12-18T01:49:36.712Z,74566.81
2022-12-18T01:50:12.352Z,74564.84
2022-12-18T01:50:44.649Z,74558.84
2022-12-18T01:51:19.588Z,74558.84
2022-12-18T01:51:51.826Z,74560.84
2022-12-18T01:52:30.289Z,74554.84
2022-12-18T01:53:09.831Z,74556.84
2022-12-18T01:53:43.383Z,74558.84
2022-12-18T01:54:16.304Z,74558.84
2022-12-18T01:54:48.973Z,74554.84
2022-12-18T01:55:27.282Z,74562.84
2022-12-18T01:55:59.960Z,74560.84
2022-12-18T01:56:32.865Z,74560.84
2022-12-18T01:57:05.197Z,74556.84
2022-12-18T01:57:41.152Z,74556.84
2022-12-18T01:58:13.528Z,74558.84
2022-12-18T01:58:51.660Z,74562.84
2022-12-18T01:59:26.616Z,74560.84
2022-12-18T02:00:02.984Z,74558.84
2022-12-18T02:00:47.926Z,74550.84
2022-12-18T02:01:22.256Z,74562.84
2022-12-18T02:01:54.674Z,74562.84
2022-12-18T02:02:28.468Z,74552.84
2022-12-18T02:03:03.459Z,74550.84
2022-12-18T02:03:36.852Z,74558.84
2022-12-18T02:04:21.774Z,74562.84
2022-12-18T02:04:57.031Z,74560.84
2022-12-18T02:05:37.360Z,74556.84
2022-12-18T02:06:14.896Z,74556.84
2022-12-18T02:06:52.101Z,74548.84
2022-12-18T02:07:32.355Z,74552.84
2022-12-18T02:08:10.050Z,74550.84
2022-12-18T02:08:50.819Z,74550.84
2022-12-18T02:09:26.851Z,74554.84
2022-12-18T02:10:03.087Z,74552.84
2022-12-18T02:10:41.916Z,74546.84
2022-12-18T02:11:20.160Z,74548.84
2022-12-18T02:11:57.812Z,74550.84
2022-12-18T02:12:40.672Z,74548.84
2022-12-18T02:13:15.692Z,74546.84
2022-12-18T02:13:55.836Z,74554.84
2022-12-18T02:14:35.739Z,74540.88
2022-12-18T02:15:15.365Z,74554.84
2022-12-18T02:15:54.444Z,74554.84
2022-12-18T02:16:36.426Z,74550.84
2022-12-18T02:17:11.714Z,74552.84
2022-12-18T02:17:47.339Z,74552.84
2022-12-18T02:18:24.865Z,74552.84
2022-12-18T02:19:00.453Z,74544.84
2022-12-18T02:19:43.343Z,74530.88
2022-12-18T02:20:21.760Z,74518.91
2022-12-18T02:20:56.997Z,74502.94
2022-12-18T02:21:35.603Z,74490.94
2022-12-18T02:22:22.640Z,74484.97
2022-12-18T02:23:05.811Z,74474.97
2022-12-18T02:23:51.364Z,74463.00
2022-12-18T02:24:32.996Z,74459.00
2022-12-18T02:25:16.898Z,74451.00
2022-12-18T02:26:07.087Z,74435.03
2022-12-18T02:26:42.075Z,74425.06
2022-12-18T02:27:17.353Z,74419.06
2022-12-18T02:27:52.316Z,74411.06
2022-12-18T02:28:31.419Z,74407.09
2022-12-18T02:29:10.795Z,74399.09
2022-12-18T02:29:46.532Z,74395.09
2022-12-18T02:30:19.643Z,74385.13
2022-12-18T02:30:56.404Z,74383.13
2022-12-18T02:31:31.732Z,74375.13
2022-12-18T02:32:07.471Z,74371.13
2022-12-18T02:32:44.085Z,74365.16
2022-12-18T02:33:16.953Z,74355.16
2022-12-18T02:33:50.916Z,74357.16
2022-12-18T02:34:30.115Z,74353.16
2022-12-18T02:35:06.094Z,74347.19
2022-12-18T02:35:40.847Z,74339.19
2022-12-18T02:36:17.090Z,74335.19
2022-12-18T02:36:51.160Z,74329.22
2022-12-18T02:37:24.636Z,74329.22
2022-12-18T02:38:01.060Z,74339.19
2022-12-18T02:38:36.367Z,74327.22
2022-12-18T02:39:16.935Z,74331.19
2022-12-18T02:40:04.514Z,74317.22
2022-12-18T02:40:39.032Z,74323.22
2022-12-18T02:41:14.716Z,74315.22
2022-12-18T02:41:48.336Z,74323.22
2022-12-18T02:42:23.663Z,74311.22
2022-12-18T02:42:56.036Z,74315.22
2022-12-18T02:43:31.273Z,74311.22
2022-12-18T02:44:14.039Z,74311.22
2022-12-18T02:44:49.111Z,74307.25
2022-12-18T02:45:24.654Z,74307.25
2022-12-18T02:46:02.762Z,74307.25
2022-12-18T02:46:39.523Z,74307.25
2022-12-18T02:47:19.460Z,74307.25
2022-12-18T02:47:54.496Z,74303.25
2022-12-18T02:48:32.800Z,74307.25
2022-12-18T02:49:13.566Z,74301.25
2022-12-18T02:49:55.364Z,74297.25
2022-12-18T02:50:33.075Z,74307.25
2022-12-18T02:51:10.053Z,74309.25
2022-12-18T02:51:52.482Z,74303.25
2022-12-18T02:52:30.572Z,74311.22
2022-12-18T02:53:15.109Z,74307.25
2022-12-18T02:53:54.875Z,74309.25
2022-12-18T02:54:37.698Z,74311.22
2022-12-18T02:55:20.812Z,74307.25
2022-12-18T02:56:07.390Z,74307.25
2022-12-18T02:56:47.524Z,74299.25
2022-12-18T02:57:30.276Z,74307.25
2022-12-18T02:58:07.587Z,74295.25
2022-12-18T02:58:51.520Z,74303.25
2022-12-18T02:59:41.435Z,74295.25
2022-12-18T03:00:16.768Z,74299.25
2022-12-18T03:00:56.043Z,74297.25
2022-12-18T03:01:35.244Z,74295.25
2022-12-18T03:02:18.883Z,74289.28
2022-12-18T03:02:59.906Z,74295.25
2022-12-18T03:03:37.948Z,74287.28
2022-12-18T03:04:15.480Z,74291.28
2022-12-18T03:04:53.860Z,74287.28
2022-12-18T03:05:31.983Z,74291.28
2022-12-18T03:06:08.004Z,74295.25
2022-12-18T03:06:45.919Z,74289.28
2022-12-18T03:07:22.347Z,74291.28
2022-12-18T03:07:58.428Z,74287.28
2022-12-18T03:08:40.105Z,74291.28
2022-12-18T03:09:14.984Z,74295.25
2022-12-18T03:09:50.744Z,74295.25
2022-12-18T03:10:32.764Z,74299.25
2022-12-18T03:11:07.792Z,74307.25
2022-12-18T03:12:03.067Z,74299.25
2022-12-18T03:12:37.733Z,74299.25
2022-12-18T03:13:16.525Z,74305.25
2022-12-18T03:13:50.793Z,74307.25
2022-12-18T03:14:23.951Z,74305.25
2022-12-18T03:15:00.761Z,74307.25
2022-12-18T03:15:39.335Z,74305.25
2022-12-18T03:16:20.519Z,74303.25
2022-12-18T03:16:56.334Z,74299.25
2022-12-18T03:17:29.471Z,74311.22
2022-12-18T03:18:08.671Z,74303.25
2022-12-18T03:18:44.754Z,74303.25
2022-12-18T03:19:18.395Z,74311.22
2022-12-18T03:19:51.372Z,74311.22
2022-12-18T03:20:27.529Z,74313.22
2022-12-18T03:21:03.801Z,74315.22
2022-12-18T03:21:40.823Z,74313.22
2022-12-18T03:22:16.344Z,74307.25
2022-12-18T03:22:55.884Z,74311.22
2022-12-18T03:23:33.751Z,74311.22
2022-12-18T03:24:07.797Z,74315.22
2022-12-18T03:24:41.584Z,74313.22
2022-12-18T03:25:18.100Z,74311.22
2022-12-18T03:25:53.893Z,74305.25
2022-12-18T03:26:29.215Z,74307.25
2022-12-18T03:27:16.498Z,74307.25
2022-12-18T03:27:51.999Z,74315.22
2022-12-18T03:28:30.743Z,74303.25
2022-12-18T03:29:09.451Z,74305.25
2022-12-18T03:29:45.673Z,74299.25
2022-12-18T03:30:22.969Z,74297.25
2022-12-18T03:30:58.104Z,74299.25
2022-12-18T03:31:31.133Z,74295.25
2022-12-18T03:32:13.632Z,74299.25
2022-12-18T03:32:48.782Z,74301.25
2022-12-18T03:33:26.972Z,74295.25
2022-12-18T03:34:06.152Z,74291.28
2022-12-18T03:34:49.509Z,74291.28
2022-12-18T03:35:31.339Z,74293.25
2022-12-18T03:36:06.833Z,74295.25
2022-12-18T03:36:39.251Z,74299.25
2022-12-18T03:37:11.877Z,74295.25
2022-12-18T03:37:44.220Z,74295.25
2022-12-18T03:38:19.164Z,74299.25
2022-12-18T03:38:53.598Z,74297.25
2022-12-18T03:39:28.148Z,74299.25
2022-12-18T03:40:06.611Z,74295.25
2022-12-18T03:40:47.323Z,74303.25
2022-12-18T03:41:25.071Z,74303.25
2022-12-18T03:42:29.970Z,74311.22
2022-12-18T03:43:12.384Z,74303.25
2022-12-18T03:43:50.780Z,74311.22
2022-12-18T03:44:32.070Z,74311.22
2022-12-18T03:45:10.596Z,74305.25
2022-12-18T03:45:47.032Z,74311.22
2022-12-18T03:46:29.607Z,74313.22
2022-12-18T03:47:07.399Z,74311.22
2022-12-18T03:47:44.610Z,74315.22
2022-12-18T03:48:23.060Z,74311.22
2022-12-18T03:49:01.292Z,74307.25
2022-12-18T03:49:37.992Z,74309.25
2022-12-18T03:50:17.565Z,74305.25
2022-12-18T03:50:57.783Z,74303.25
2022-12-18T03:51:40.793Z,74297.25
2022-12-18T03:52:20.939Z,74297.25
2022-12-18T03:52:56.352Z,74303.25
2022-12-18T03:53:35.821Z,74295.25
2022-12-18T03:54:12.180Z,74291.28
2022-12-18T03:54:49.798Z,74295.25
2022-12-18T03:55:24.228Z,74303.25
2022-12-18T03:56:03.767Z,74295.25
2022-12-18T03:56:52.045Z,74295.25
2022-12-18T03:57:31.398Z,74299.25
2022-12-18T03:58:05.209Z,74303.25
2022-12-18T03:58:53.030Z,74297.25
2022-12-18T03:59:29.480Z,74307.25
2022-12-18T04:00:06.928Z,74303.25
2022-12-18T04:00:49.356Z,74307.25
2022-12-18T04:01:25.333Z,74311.22
2022-12-18T04:01:59.229Z,74299.25
2022-12-18T04:02:35.496Z,74303.25
2022-12-18T04:03:09.600Z,74309.25
2022-12-18T04:03:50.438Z,74303.25
2022-12-18T04:04:28.259Z,74307.25
2022-12-18T04:05:02.900Z,74303.25
2022-12-18T04:05:35.907Z,74311.22
2022-12-18T04:06:11.525Z,74307.25
2022-12-18T04:06:47.332Z,74303.25
2022-12-18T04:07:19.987Z,74309.25
2022-12-18T04:07:55.804Z,74311.22
2022-12-18T04:08:28.319Z,74313.22
2022-12-18T04:09:09.809Z,74311.22
2022-12-18T04:09:48.780Z,74317.22
2022-12-18T04:10:21.337Z,74317.22
2022-12-18T04:10:53.937Z,74315.22
2022-12-18T04:11:26.611Z,74315.22
2022-12-18T04:12:02.229Z,74315.22
2022-12-18T04:12:38.948Z,74313.22
2022-12-18T04:13:13.596Z,74315.22
2022-12-18T04:13:48.980Z,74315.22
2022-12-18T04:14:28.012Z,74313.22
2022-12-18T04:15:02.411Z,74309.25
2022-12-18T04:15:39.046Z,74303.25
2022-12-18T04:16:15.576Z,74305.25
2022-12-18T04:16:52.655Z,74307.25
2022-12-18T04:17:29.305Z,74307.25
2022-12-18T04:18:03.092Z,74307.25
2022-12-18T04:18:45.459Z,74307.25
2022-12-18T04:19:20.415Z,74311.22
2022-12-18T04:19:55.971Z,74307.25
2022-12-18T04:20:32.469Z,74311.22
2022-12-18T04:21:05.080Z,74319.22
2022-12-18T04:21:39.000Z,74311.22
2022-12-18T04:22:14.808Z,74313.22
2022-12-18T04:22:51.423Z,74317.22
2022-12-18T04:23:25.588Z,74315.22
2022-12-18T04:24:06.030Z,74315.22
2022-12-18T04:24:41.100Z,74307.25
2022-12-18T04:25:23.295Z,74317.22
2022-12-18T04:26:12.371Z,74315.22
2022-12-18T04:27:03.345Z,74315.22
2022-12-18T04:27:45.324Z,74319.22
2022-12-18T04:28:18.400Z,74315.22
2022-12-18T04:28:50.608Z,74319.22
2022-12-18T04:29:25.440Z,74319.22
2022-12-18T04:29:58.095Z,74315.22
2022-12-18T04:30:30.439Z,74323.22
2022-12-18T04:31:05.293Z,74327.22
2022-12-18T04:31:37.643Z,74327.22
2022-12-18T04:32:10.560Z,74323.22
2022-12-18T04:32:51.898Z,74323.22
2022-12-18T04:33:24.997Z,74333.19
2022-12-18T04:33:57.309Z,74331.19
2022-12-18T04:34:29.660Z,74327.22
2022-12-18T04:35:05.270Z,74331.19
2022-12-18T04:35:38.676Z,74329.22
2022-12-18T04:36:10.988Z,74331.19
2022-12-18T04:36:46.294Z,74335.19
2022-12-18T04:37:19.354Z,74339.19
2022-12-18T04:37:52.911Z,74337.19
2022-12-18T04:38:28.470Z,74339.19
2022-12-18T04:39:08.575Z,74339.19
2022-12-18T04:39:41.500Z,74343.19
2022-12-18T04:40:23.444Z,74341.19
2022-12-18T04:40:56.152Z,74345.19
2022-12-18T04:41:31.949Z,74347.19
2022-12-18T04:42:04.355Z,74343.19
2022-12-18T04:42:39.207Z,74347.19
2022-12-18T04:43:14.182Z,74351.16
2022-12-18T04:43:49.094Z,74347.19
2022-12-18T04:44:21.375Z,74351.16
2022-12-18T04:44:53.629Z,74355.16
2022-12-18T04:45:28.421Z,74355.16
2022-12-18T04:46:04.788Z,74357.16
2022-12-18T04:46:37.075Z,74359.16
2022-12-18T04:47:12.016Z,74359.16
2022-12-18T04:47:44.240Z,74355.16
2022-12-18T04:48:16.476Z,74355.16
2022-12-18T04:48:51.321Z,74355.16
2022-12-18T04:49:23.524Z,74351.16
2022-12-18T04:49:55.736Z,74355.16
2022-12-18T04:50:31.138Z,74353.16
2022-12-18T04:51:03.497Z,74355.16
2022-12-18T04:51:35.747Z,74357.16
2022-12-18T04:52:10.780Z,74351.16
2022-12-18T04:52:42.987Z,74351.16
2022-12-18T04:53:15.199Z,74347.19
2022-12-18T04:53:50.016Z,74343.19
2022-12-18T04:54:22.363Z,74347.19
2022-12-18T04:54:54.557Z,74343.19
2022-12-18T04:55:29.569Z,74347.19
2022-12-18T04:56:06.523Z,74351.16
2022-12-18T04:56:38.796Z,74345.19
2022-12-18T04:57:13.640Z,74357.16
2022-12-18T04:57:46.333Z,74353.16
2022-12-18T04:58:21.148Z,74357.16
2022-12-18T04:58:55.951Z,74349.19
2022-12-18T04:59:28.205Z,74347.19
2022-12-18T05:00:00.439Z,74349.19
2022-12-18T05:00:35.279Z,74345.19
2022-12-18T05:01:08.550Z,74347.19
2022-12-18T05:01:40.930Z,74337.19
2022-12-18T05:02:16.036Z,74339.19
2022-12-18T05:02:48.438Z,74347.19
2022-12-18T05:03:20.783Z,74345.19
2022-12-18T05:03:56.143Z,74341.19
2022-12-18T05:04:28.681Z,74341.19
2022-12-18T05:05:00.919Z,74343.19
2022-12-18T05:05:35.724Z,74339.19
2022-12-18T05:06:08.808Z,74351.16
2022-12-18T05:06:43.627Z,74347.19
2022-12-18T05:07:15.869Z,74351.16
2022-12-18T05:07:48.076Z,74351.16
2022-12-18T05:08:22.935Z,74355.16
2022-12-18T05:08:55.143Z,74347.19
2022-12-18T05:09:27.360Z,74353.16
2022-12-18T05:10:02.220Z,74347.19
2022-12-18T05:10:38.043Z,74357.16
2022-12-18T05:11:12.387Z,74347.19
2022-12-18T05:11:47.742Z,74351.16
2022-12-18T05:12:20.008Z,74355.16
2022-12-18T05:13:01.159Z,74355.16
2022-12-18T05:13:40.254Z,74355.16
2022-12-18T05:14:12.679Z,74359.16
2022-12-18T05:14:44.917Z,74361.16
2022-12-18T05:15:19.961Z,74359.16
2022-12-18T05:15:53.597Z,74363.16
2022-12-18T05:16:26.181Z,74363.16
2022-12-18T05:17:01.417Z,74367.16
2022-12-18T05:17:33.762Z,74371.13
2022-12-18T05:18:06.168Z,74379.13
2022-12-18T05:18:41.108Z,74383.13
2022-12-18T05:19:13.316Z,74383.13
2022-12-18T05:19:45.781Z,74395.09
2022-12-18T05:20:20.760Z,74395.09
2022-12-18T05:20:53.536Z,74397.09
2022-12-18T05:21:25.751Z,74393.09
2022-12-18T05:22:00.820Z,74387.13
2022-12-18T05:22:33.056Z,74383.13
2022-12-18T05:23:05.325Z,74385.13
2022-12-18T05:23:40.457Z,74375.13
2022-12-18T05:24:13.104Z,74371.13
2022-12-18T05:24:45.306Z,74369.13
2022-12-18T05:25:17.882Z,74365.16
2022-12-18T05:25:54.902Z,74355.16
2022-12-18T05:26:27.184Z,74351.16
2022-12-18T05:26:59.424Z,74347.19
2022-12-18T05:27:34.231Z,74337.19
2022-12-18T05:28:06.443Z,74337.19
2022-12-18T05:28:41.264Z,74335.19
2022-12-18T05:29:16.084Z,74335.19
2022-12-18T05:29:48.393Z,74337.19
2022-12-18T05:30:20.617Z,74325.22
2022-12-18T05:30:56.713Z,74327.22
2022-12-18T05:31:28.976Z,74323.22
2022-12-18T05:32:01.208Z,74323.22
2022-12-18T05:32:36.105Z,74323.22
2022-12-18T05:33:08.316Z,74319.22
2022-12-18T05:33:40.887Z,74331.19
2022-12-18T05:34:15.885Z,74327.22
2022-12-18T05:34:48.087Z,74323.22
2022-12-18T05:35:20.440Z,74325.22
2022-12-18T05:35:55.460Z,74325.22
2022-12-18T05:36:27.733Z,74319.22
2022-12-18T05:36:59.946Z,74323.22
2022-12-18T05:37:39.525Z,74319.22
2022-12-18T05:38:14.851Z,74319.22
2022-12-18T05:38:47.063Z,74319.22
2022-12-18T05:39:21.882Z,74327.22
2022-12-18T05:39:54.079Z,74327.22
2022-12-18T05:40:26.364Z,74323.22
2022-12-18T05:40:58.762Z,74323.22
2022-12-18T05:41:33.653Z,74327.22
2022-12-18T05:42:05.972Z,74323.22
2022-12-18T05:42:38.314Z,74325.22
2022-12-18T05:43:10.610Z,74327.22
2022-12-18T05:43:48.029Z,74331.19
2022-12-18T05:44:20.236Z,74331.19
2022-12-18T05:44:52.481Z,74327.22
2022-12-18T05:45:24.730Z,74335.19
2022-12-18T05:46:00.072Z,74329.22
2022-12-18T05:46:32.352Z,74327.22
2022-12-18T05:47:05.332Z,74331.19
2022-12-18T05:47:40.188Z,74335.19
2022-12-18T05:48:12.480Z,74329.22
2022-12-18T05:48:45.668Z,74335.19
2022-12-18T05:49:20.467Z,74331.19
2022-12-18T05:49:52.673Z,74335.19
2022-12-18T05:50:24.897Z,74335.19
2022-12-18T05:50:59.789Z,74333.19
2022-12-18T05:51:32.548Z,74335.19
2022-12-18T05:52:05.012Z,74341.19
2022-12-18T05:52:39.927Z,74335.19
2022-12-18T05:53:12.819Z,74339.19
2022-12-18T05:53:45.212Z,74339.19
2022-12-18T05:54:20.039Z,74333.19
2022-12-18T05:54:52.264Z,74345.19
2022-12-18T05:55:24.460Z,74345.19
2022-12-18T05:56:04.037Z,74347.19
2022-12-18T05:56:36.244Z,74347.19
2022-12-18T05:57:08.451Z,74345.19
2022-12-18T05:57:43.276Z,74347.19
2022-12-18T05:58:16.201Z,74351.16
2022-12-18T05:58:55.230Z,74355.16
2022-12-18T05:59:27.656Z,74351.16
2022-12-18T05:59:59.867Z,74353.16
2022-12-18T06:00:35.913Z,74351.16
2022-12-18T06:01:10.764Z,74351.16
2022-12-18T06:01:44.359Z,74351.16
2022-12-18T06:02:19.372Z,74347.19
2022-12-18T06:02:51.754Z,74351.16
2022-12-18T06:03:26.881Z,74351.16
2022-12-18T06:04:05.764Z,74351.16
2022-12-18T06:04:38.120Z,74351.16
2022-12-18T06:05:10.380Z,74351.16
2022-12-18T06:05:47.512Z,74351.16
2022-12-18T06:06:21.586Z,74355.16
2022-12-18T06:06:53.848Z,74351.16
2022-12-18T06:07:28.658Z,74357.16
2022-12-18T06:08:00.983Z,74351.16
2022-12-18T06:08:33.200Z,74351.16
2022-12-18T06:09:09.284Z,74351.16
2022-12-18T06:09:44.132Z,74355.16
2022-12-18T06:10:16.524Z,74355.16
2022-12-18T06:10:52.773Z,74347.19
2022-12-18T06:11:29.242Z,74351.16
2022-12-18T06:12:01.516Z,74351.16
2022-12-18T06:12:34.575Z,74355.16
2022-12-18T06:13:09.994Z,74351.16
2022-12-18T06:13:42.534Z,74347.19
2022-12-18T06:14:18.351Z,74357.16
2022-12-18T06:14:53.200Z,74355.16
2022-12-18T06:15:25.587Z,74343.19
2022-12-18T06:15:57.856Z,74353.16
2022-12-18T06:16:33.254Z,74351.16
2022-12-18T06:17:05.516Z,74355.16
2022-12-18T06:17:38.244Z,74347.19
2022-12-18T06:18:13.047Z,74359.16
2022-12-18T06:18:45.261Z,74347.19
2022-12-18T06:19:17.584Z,74351.16
2022-12-18T06:19:52.417Z,74351.16
2022-12-18T06:20:26.911Z,74355.16
2022-12-18T06:21:03.011Z,74347.19
2022-12-18T06:21:37.846Z,74355.16
2022-12-18T06:22:10.059Z,74359.16
2022-12-18T06:22:42.272Z,74351.16
2022-12-18T06:23:17.117Z,74355.16
2022-12-18T06:23:49.315Z,74359.16
2022-12-18T06:24:21.543Z,74359.16
2022-12-18T06:24:56.352Z,74355.16
2022-12-18T06:25:28.756Z,74355.16
2022-12-18T06:26:05.088Z,74355.16
2022-12-18T06:26:41.197Z,74355.16
2022-12-18T06:27:13.412Z,74355.16
2022-12-18T06:27:45.634Z,74359.16
2022-12-18T06:28:20.649Z,74357.16
2022-12-18T06:28:52.984Z,74353.16
2022-12-18T06:29:27.800Z,74359.16
2022-12-18T06:30:03.003Z,74359.16
2022-12-18T06:30:35.247Z,74351.16
2022-12-18T06:31:08.179Z,74347.19
2022-12-18T06:31:43.068Z,74357.16
2022-12-18T06:32:15.304Z,74353.16
2022-12-18T06:32:51.810Z,74351.16
2022-12-18T06:33:29.184Z,74357.16
2022-12-18T06:34:06.372Z,74351.16
2022-12-18T06:34:39.267Z,74351.16
2022-12-18T06:35:11.547Z,74351.16
2022-12-18T06:35:46.408Z,74343.19
2022-12-18T06:36:18.794Z,74345.19
2022-12-18T06:36:51.056Z,74341.19
2022-12-18T06:37:27.292Z,74343.19
2022-12-18T06:37:59.537Z,74345.19
2022-12-18T06:38:32.827Z,74347.19
2022-12-18T06:39:07.637Z,74343.19
2022-12-18T06:39:39.920Z,74345.19
2022-12-18T06:40:12.300Z,74347.19
2022-12-18T06:40:47.111Z,74341.19
2022-12-18T06:41:20.847Z,74341.19
2022-12-18T06:41:53.264Z,74349.19
2022-12-18T06:42:28.141Z,74339.19
2022-12-18T06:43:00.411Z,74343.19
2022-12-18T06:43:32.674Z,74353.16
2022-12-18T06:44:07.800Z,74351.16
2022-12-18T06:44:42.626Z,74357.16
2022-12-18T06:45:15.081Z,74353.16
2022-12-18T06:45:53.743Z,74355.16
2022-12-18T06:46:26.160Z,74359.16
2022-12-18T06:46:58.372Z,74369.13
2022-12-18T06:47:33.177Z,74371.13
2022-12-18T06:48:05.571Z,74387.13
2022-12-18T06:48:37.999Z,74395.09
2022-12-18T06:49:13.501Z,74393.09
2022-12-18T06:49:46.075Z,74403.09
2022-12-18T06:50:18.586Z,74411.06
2022-12-18T06:50:53.397Z,74423.06
2022-12-18T06:51:25.922Z,74427.03
2022-12-18T06:51:58.168Z,74443.03
2022-12-18T06:52:32.981Z,74451.00
2022-12-18T06:53:05.226Z,74457.00
2022-12-18T06:53:40.368Z,74466.97
2022-12-18T06:54:15.444Z,74476.97
2022-12-18T06:54:47.660Z,74482.97
2022-12-18T06:55:20.083Z,74494.94
2022-12-18T06:55:55.392Z,74496.94
2022-12-18T06:56:27.643Z,74504.91